createdAt,value
2019-02-23T00:01:32.694Z,-0.56
2019-02-23T00:04:01.074Z,1.18
2019-02-23T00:06:30.279Z,1.13
2019-02-23T00:08:58.710Z,1.09
2019-02-23T00:11:27.014Z,1.05
2019-02-23T00:13:55.275Z,1.02
2019-02-23T00:16:23.567Z,1.01
2019-02-23T00:18:51.948Z,0.98
2019-02-23T00:21:20.280Z,0.95
2019-02-23T00:23:48.599Z,0.91
2019-02-23T00:26:16.870Z,0.91
2019-02-23T00:28:45.199Z,0.92
2019-02-23T00:31:13.526Z,0.89
2019-02-23T00:33:41.804Z,0.85
2019-02-23T00:36:14.561Z,0.74
2019-02-23T00:38:42.868Z,0.66
2019-02-23T00:41:11.165Z,0.63
2019-02-23T00:43:39.534Z,0.66
2019-02-23T00:46:07.784Z,0.61
2019-02-23T00:48:36.177Z,0.61
2019-02-23T00:51:04.452Z,0.55
2019-02-23T00:53:32.727Z,0.50
2019-02-23T00:56:01.058Z,0.48
2019-02-23T00:58:29.345Z,0.44
2019-02-23T01:01:00.147Z,0.41
2019-02-23T01:03:28.486Z,-0.90
2019-02-23T01:05:56.739Z,0.36
2019-02-23T01:08:25.020Z,0.35
2019-02-23T01:10:58.196Z,0.35
2019-02-23T01:13:23.308Z,0.33
2019-02-23T01:15:51.666Z,0.33
2019-02-23T01:18:19.950Z,0.27
2019-02-23T01:20:48.222Z,0.22
2019-02-23T01:23:16.497Z,0.20
2019-02-23T01:25:44.757Z,0.16
2019-02-23T01:28:13.030Z,0.13
2019-02-23T01:30:41.316Z,0.11
2019-02-23T01:33:09.605Z,0.08
2019-02-23T01:35:37.912Z,0.05
2019-02-23T01:38:06.187Z,0.02
2019-02-23T01:40:34.523Z,-0.01
2019-02-23T01:43:02.879Z,-0.06
2019-02-23T01:45:41.848Z,-0.10
2019-02-23T01:48:01.176Z,-0.10
2019-02-23T01:50:29.525Z,-0.11
2019-02-23T01:52:57.837Z,-0.14
2019-02-23T01:55:26.146Z,-0.14
2019-02-23T01:57:54.510Z,-0.18
2019-02-23T02:00:22.951Z,-0.24
2019-02-23T02:02:51.253Z,-0.27
2019-02-23T02:05:19.505Z,-0.31
2019-02-23T02:07:47.917Z,-0.34
2019-02-23T02:10:16.395Z,-0.36
2019-02-23T02:12:47.402Z,-0.42
2019-02-23T02:15:15.939Z,-0.45
2019-02-23T02:17:44.270Z,-0.46
2019-02-23T02:20:12.530Z,-0.50
2019-02-23T02:22:40.824Z,-0.52
2019-02-23T02:25:09.253Z,-0.55
2019-02-23T02:27:37.522Z,-0.60
2019-02-23T02:30:08.434Z,-0.64
2019-02-23T02:32:36.686Z,-0.69
2019-02-23T02:35:06.557Z,-0.70
2019-02-23T02:37:34.830Z,-0.71
2019-02-23T02:40:03.161Z,-0.72
2019-02-23T02:42:31.436Z,-0.71
2019-02-23T02:44:59.704Z,-0.74
2019-02-23T02:47:28.088Z,-0.77
2019-02-23T02:49:56.376Z,-0.78
2019-02-23T02:52:24.669Z,-0.81
2019-02-23T02:54:52.953Z,-0.83
2019-02-23T02:57:21.241Z,-0.86
2019-02-23T02:59:49.491Z,-0.87
2019-02-23T03:02:17.788Z,-0.87
2019-02-23T03:04:46.040Z,-0.88
2019-02-23T03:07:14.328Z,-0.88
2019-02-23T03:09:42.642Z,-0.91
2019-02-23T03:12:10.919Z,-0.93
2019-02-23T03:14:39.281Z,-0.94
2019-02-23T03:17:07.560Z,-0.95
2019-02-23T03:19:35.877Z,-0.96
2019-02-23T03:22:04.242Z,-0.97
2019-02-23T03:24:32.505Z,-0.99
2019-02-23T03:27:00.941Z,-1.00
2019-02-23T03:29:29.267Z,-1.02
2019-02-23T03:31:57.553Z,-1.05
2019-02-23T03:34:25.843Z,-1.08
2019-02-23T03:36:54.149Z,-1.09
2019-02-23T03:39:22.439Z,-1.09
2019-02-23T03:41:50.733Z,-1.13
2019-02-23T03:44:19.000Z,-1.15
2019-02-23T03:46:47.288Z,-1.16
2019-02-23T03:49:15.619Z,-1.19
2019-02-23T03:51:44.006Z,-1.19
2019-02-23T03:54:12.367Z,-1.19
2019-02-23T03:56:40.640Z,-1.21
2019-02-23T03:59:08.986Z,-1.24
2019-02-23T04:01:37.354Z,-1.25
2019-02-23T04:04:05.632Z,-1.25
2019-02-23T04:06:33.919Z,-1.26
2019-02-23T04:09:02.951Z,-1.27
2019-02-23T04:11:31.367Z,-1.20
2019-02-23T04:13:59.637Z,-1.21
2019-02-23T04:16:27.922Z,-1.25
2019-02-23T04:18:56.194Z,-2.67
2019-02-23T04:21:24.478Z,-1.27
2019-02-23T04:23:55.166Z,-1.27
2019-02-23T04:26:22.783Z,-1.31
2019-02-23T04:28:52.694Z,-1.35
2019-02-23T04:31:20.978Z,-1.40
2019-02-23T04:33:49.280Z,-1.41
2019-02-23T04:36:17.543Z,-1.40
2019-02-23T04:38:45.809Z,-1.43
2019-02-23T04:41:14.125Z,-7.88
2019-02-23T04:43:44.180Z,-1.51
2019-02-23T04:46:12.621Z,-1.54
2019-02-23T04:48:40.870Z,-1.55
2019-02-23T04:51:14.418Z,-1.59
2019-02-23T04:53:39.350Z,-1.59
2019-02-23T04:56:07.796Z,-1.62
2019-02-23T04:58:36.106Z,-1.66
2019-02-23T05:01:04.450Z,-1.67
2019-02-23T05:03:32.681Z,-1.66
2019-02-23T05:06:00.991Z,-1.68
2019-02-23T05:08:29.260Z,-1.69
2019-02-23T05:10:57.529Z,-1.69
2019-02-23T05:13:25.811Z,-1.72
2019-02-23T05:15:54.109Z,-1.72
2019-02-23T05:18:22.386Z,-1.73
2019-02-23T05:20:50.663Z,-1.72
2019-02-23T05:23:18.969Z,-1.72
2019-02-23T05:25:47.289Z,-1.72
2019-02-23T05:28:15.583Z,-1.72
2019-02-23T05:30:43.846Z,-1.71
2019-02-23T05:33:12.190Z,-1.70
2019-02-23T05:35:40.479Z,-1.73
2019-02-23T05:38:08.791Z,-1.78
2019-02-23T05:40:37.142Z,-1.73
2019-02-23T05:43:05.494Z,-1.72
2019-02-23T05:45:33.780Z,-1.72
2019-02-23T05:48:02.081Z,-1.77
2019-02-23T05:50:30.355Z,-1.80
2019-02-23T05:52:58.685Z,-1.79
2019-02-23T05:55:26.973Z,-1.82
2019-02-23T05:57:55.236Z,-1.81
2019-02-23T06:00:23.595Z,-1.86
2019-02-23T06:02:51.884Z,-1.89
2019-02-23T06:05:20.306Z,-1.92
2019-02-23T06:07:48.675Z,-1.91
2019-02-23T06:10:16.963Z,-1.93
2019-02-23T06:12:45.232Z,-1.94
2019-02-23T06:15:16.579Z,-1.94
2019-02-23T06:17:44.910Z,-1.93
2019-02-23T06:20:13.360Z,-1.95
2019-02-23T06:22:41.735Z,-1.95
2019-02-23T06:25:10.097Z,-1.95
2019-02-23T06:27:41.419Z,-1.95
2019-02-23T06:30:11.878Z,-1.93
2019-02-23T06:32:40.131Z,-1.94
2019-02-23T06:35:09.960Z,-1.94
2019-02-23T06:37:38.226Z,-1.92
2019-02-23T06:40:11.208Z,-1.92
2019-02-23T06:42:39.249Z,-1.90
2019-02-23T06:45:13.878Z,-1.88
2019-02-23T06:47:42.145Z,-1.85
2019-02-23T06:50:10.422Z,-1.79
2019-02-23T06:52:38.979Z,-1.75
2019-02-23T06:55:07.996Z,-1.70
2019-02-23T06:57:36.355Z,-1.69
2019-02-23T07:00:07.649Z,-1.67
2019-02-23T07:02:36.079Z,-1.64
2019-02-23T07:05:04.926Z,-1.64
2019-02-23T07:07:33.307Z,-1.63
2019-02-23T07:10:01.705Z,-1.64
2019-02-23T07:12:30.011Z,-1.61
2019-02-23T07:14:59.985Z,-1.56
2019-02-23T07:17:28.275Z,-1.52
2019-02-23T07:19:58.274Z,-1.48
2019-02-23T07:22:26.563Z,-1.42
2019-02-23T07:24:54.824Z,-1.37
2019-02-23T07:27:23.092Z,-1.30
2019-02-23T07:29:51.472Z,-1.26
2019-02-23T07:32:19.823Z,-1.22
2019-02-23T07:34:48.198Z,-1.16
2019-02-23T07:37:16.799Z,-1.12
2019-02-23T07:39:45.391Z,-1.06
2019-02-23T07:42:13.930Z,-0.99
2019-02-23T07:44:42.469Z,-0.95
2019-02-23T07:47:10.765Z,-0.88
2019-02-23T07:49:39.229Z,-0.83
2019-02-23T07:52:09.029Z,-0.78
2019-02-23T07:54:37.310Z,-0.74
2019-02-23T07:57:05.603Z,-0.68
2019-02-23T07:59:33.947Z,-0.61
2019-02-23T08:02:02.690Z,-0.57
2019-02-23T08:04:31.360Z,-0.55
2019-02-23T08:07:00.112Z,-0.49
2019-02-23T08:09:28.683Z,-0.42
2019-02-23T08:11:57.042Z,-0.38
2019-02-23T08:14:25.330Z,-0.32
2019-02-23T08:16:53.965Z,-0.24
2019-02-23T08:19:22.417Z,-0.18
2019-02-23T08:21:50.791Z,-0.11
2019-02-23T08:24:19.400Z,-0.03
2019-02-23T08:26:47.981Z,0.09
2019-02-23T08:29:16.667Z,0.18
2019-02-23T08:31:45.324Z,0.27
2019-02-23T08:34:15.321Z,0.34
2019-02-23T08:36:43.937Z,0.43
2019-02-23T08:39:12.339Z,0.52
2019-02-23T08:41:43.252Z,0.62
2019-02-23T08:44:13.047Z,0.82
2019-02-23T08:46:47.491Z,1.14
2019-02-23T08:49:15.823Z,1.45
2019-02-23T08:51:44.494Z,1.66
2019-02-23T08:54:13.051Z,1.72
2019-02-23T08:56:41.369Z,1.79
2019-02-23T08:59:09.703Z,1.77
2019-02-23T09:01:38.221Z,1.82
2019-02-23T09:04:06.484Z,1.98
2019-02-23T09:06:35.221Z,2.17
2019-02-23T09:09:04.253Z,2.45
2019-02-23T09:11:32.528Z,2.63
2019-02-23T09:14:01.078Z,2.72
2019-02-23T09:16:29.354Z,2.83
2019-02-23T09:18:57.629Z,2.89
2019-02-23T09:21:25.968Z,2.87
2019-02-23T09:23:54.298Z,1.97
2019-02-23T09:26:22.762Z,2.78
2019-02-23T09:28:51.428Z,2.92
2019-02-23T09:31:19.960Z,3.11
2019-02-23T09:33:48.506Z,3.39
2019-02-23T09:36:17.058Z,3.59
2019-02-23T09:38:45.629Z,3.80
2019-02-23T09:41:14.054Z,3.92
2019-02-23T09:43:42.551Z,4.04
2019-02-23T09:46:10.885Z,4.10
2019-02-23T09:48:42.317Z,4.27
2019-02-23T09:51:10.559Z,4.49
2019-02-23T09:53:38.865Z,4.67
2019-02-23T09:56:07.110Z,4.77
2019-02-23T09:58:35.363Z,4.85
2019-02-23T10:01:03.628Z,4.86
2019-02-23T10:03:31.891Z,4.96
2019-02-23T10:06:00.176Z,5.13
2019-02-23T10:08:28.436Z,5.26
2019-02-23T10:10:57.627Z,5.40
2019-02-23T10:13:26.132Z,5.64
2019-02-23T10:15:54.426Z,5.84
2019-02-23T10:18:22.673Z,5.84
2019-02-23T10:20:50.927Z,5.85
2019-02-23T10:23:22.095Z,5.83
2019-02-23T10:25:50.813Z,5.85
2019-02-23T10:28:19.151Z,5.99
2019-02-23T10:30:47.454Z,6.09
2019-02-23T10:33:15.694Z,6.19
2019-02-23T10:35:44.027Z,6.21
2019-02-23T10:38:12.308Z,6.09
2019-02-23T10:40:40.665Z,6.11
2019-02-23T10:43:08.933Z,6.13
2019-02-23T10:45:37.332Z,6.30
2019-02-23T10:48:05.617Z,6.37
2019-02-23T10:50:33.954Z,6.49
2019-02-23T10:53:02.200Z,6.60
2019-02-23T10:55:30.454Z,6.63
2019-02-23T10:57:58.711Z,6.63
2019-02-23T11:00:26.979Z,6.51
2019-02-23T11:02:55.227Z,6.58
2019-02-23T11:05:23.658Z,6.56
2019-02-23T11:07:51.902Z,6.58
2019-02-23T11:10:20.340Z,6.55
2019-02-23T11:12:48.600Z,6.56
2019-02-23T11:15:18.485Z,6.59
2019-02-23T11:17:46.746Z,6.53
2019-02-23T11:20:15.539Z,6.51
2019-02-23T11:22:43.780Z,6.63
2019-02-23T11:25:12.311Z,6.69
2019-02-23T11:27:40.568Z,6.75
2019-02-23T11:30:13.332Z,6.93
2019-02-23T11:32:41.603Z,6.88
2019-02-23T11:35:17.967Z,7.07
2019-02-23T11:37:46.346Z,7.19
2019-02-23T11:40:15.767Z,6.73
2019-02-23T11:42:44.015Z,7.28
2019-02-23T11:45:12.295Z,7.33
2019-02-23T11:47:40.545Z,7.43
2019-02-23T11:50:12.858Z,7.63
2019-02-23T11:52:44.265Z,7.63
2019-02-23T11:55:12.644Z,7.53
2019-02-23T11:57:40.892Z,7.68
2019-02-23T12:00:11.194Z,7.70
2019-02-23T12:02:39.463Z,7.67
2019-02-23T12:05:08.850Z,7.66
2019-02-23T12:07:37.139Z,7.65
2019-02-23T12:10:08.645Z,7.75
2019-02-23T12:12:36.924Z,7.83
2019-02-23T12:15:06.402Z,7.85
2019-02-23T12:17:34.715Z,7.86
2019-02-23T12:20:03.142Z,7.88
2019-02-23T12:22:31.525Z,7.96
2019-02-23T12:25:12.958Z,8.00
2019-02-23T12:27:40.235Z,8.15
2019-02-23T12:30:12.283Z,8.28
2019-02-23T12:32:40.641Z,8.37
2019-02-23T12:35:10.498Z,8.47
2019-02-23T12:37:38.754Z,8.37
2019-02-23T12:40:08.282Z,8.25
2019-02-23T12:42:36.623Z,8.15
2019-02-23T12:45:06.938Z,8.07
2019-02-23T12:47:35.237Z,8.01
2019-02-23T12:50:03.855Z,8.09
2019-02-23T12:52:32.147Z,8.12
2019-02-23T12:55:00.530Z,8.19
2019-02-23T12:57:31.612Z,8.32
2019-02-23T12:59:59.981Z,8.41
2019-02-23T13:02:28.332Z,7.62
2019-02-23T13:04:56.596Z,8.40
2019-02-23T13:07:24.836Z,8.43
2019-02-23T13:09:53.097Z,8.51
2019-02-23T13:12:24.654Z,8.44
2019-02-23T13:14:59.119Z,8.47
2019-02-23T13:17:48.536Z,8.55
2019-02-23T13:20:20.039Z,8.70
2019-02-23T13:22:54.254Z,8.66
2019-02-23T13:25:44.202Z,8.71
2019-02-23T13:28:34.991Z,6.60
2019-02-23T13:31:18.431Z,8.79
2019-02-23T13:34:21.601Z,8.89
2019-02-23T13:37:02.418Z,8.82
2019-02-23T13:39:52.289Z,8.71
2019-02-23T13:42:38.855Z,8.60
2019-02-23T13:45:22.513Z,8.57
2019-02-23T13:48:22.644Z,8.53
2019-02-23T13:50:57.198Z,8.44
2019-02-23T13:53:46.328Z,8.32
2019-02-23T13:56:20.795Z,8.19
2019-02-23T13:58:58.311Z,8.04
2019-02-23T14:01:46.118Z,7.95
2019-02-23T14:04:40.134Z,7.77
2019-02-23T14:07:34.186Z,7.64
2019-02-23T14:10:27.937Z,7.51
2019-02-23T14:13:01.150Z,7.40
2019-02-23T14:15:49.135Z,7.29
2019-02-23T14:18:23.366Z,7.24
2019-02-23T14:21:26.660Z,7.15
2019-02-23T14:23:58.331Z,7.16
2019-02-23T14:26:44.171Z,7.09
2019-02-23T14:29:35.610Z,7.01
2019-02-23T14:32:09.971Z,6.92
2019-02-23T14:34:50.188Z,6.82
2019-02-23T14:37:21.882Z,6.67
2019-02-23T14:40:14.666Z,6.53
2019-02-23T14:42:55.223Z,6.41
2019-02-23T14:45:48.187Z,6.28
2019-02-23T14:48:34.611Z,6.23
2019-02-23T14:51:21.478Z,6.21
2019-02-23T14:56:47.248Z,6.12
2019-02-23T14:59:30.611Z,6.07
2019-02-23T15:02:05.101Z,6.03
2019-02-23T15:04:57.341Z,5.95
2019-02-23T15:07:37.206Z,5.93
2019-02-23T15:10:14.340Z,5.89
2019-02-23T15:13:00.637Z,5.87
2019-02-23T15:15:38.134Z,5.79
2019-02-23T15:18:21.806Z,5.75
2019-02-23T15:21:02.153Z,5.69
2019-02-23T15:23:51.675Z,5.63
2019-02-23T15:26:35.229Z,5.57
2019-02-23T15:29:18.673Z,5.58
2019-02-23T15:32:08.357Z,5.54
2019-02-23T15:34:45.810Z,5.48
2019-02-23T15:37:29.229Z,5.44
2019-02-23T15:40:29.855Z,5.37
2019-02-23T15:43:01.385Z,5.29
2019-02-23T15:45:47.932Z,5.21
2019-02-23T15:48:51.243Z,5.11
2019-02-23T15:51:19.558Z,5.05
2019-02-23T15:53:47.794Z,5.01
2019-02-23T15:56:16.052Z,4.97
2019-02-23T15:58:44.303Z,4.90
2019-02-23T16:01:12.550Z,4.82
2019-02-23T16:03:40.799Z,4.71
2019-02-23T16:06:09.044Z,4.63
2019-02-23T16:08:37.290Z,4.54
2019-02-23T16:11:05.559Z,4.48
2019-02-23T16:13:33.788Z,4.39
2019-02-23T16:16:02.034Z,4.35
2019-02-23T16:18:30.284Z,4.28
2019-02-23T16:20:58.534Z,4.18
2019-02-23T16:23:34.914Z,4.09
2019-02-23T16:25:56.749Z,4.00
2019-02-23T16:28:25.024Z,3.92
2019-02-23T16:30:53.340Z,3.15
2019-02-23T16:33:21.777Z,3.77
2019-02-23T16:35:50.004Z,3.71
2019-02-23T16:38:18.251Z,3.68
2019-02-23T16:40:46.499Z,3.61
2019-02-23T16:43:14.747Z,3.55
2019-02-23T16:45:43.096Z,3.50
2019-02-23T16:48:11.342Z,3.43
2019-02-23T16:50:39.645Z,3.36
2019-02-23T16:53:07.911Z,3.28
2019-02-23T16:55:36.166Z,3.23
2019-02-23T16:58:04.413Z,3.14
2019-02-23T17:00:32.661Z,3.05
2019-02-23T17:03:01.036Z,3.01
2019-02-23T17:05:29.418Z,2.96
2019-02-23T17:07:58.015Z,2.92
2019-02-23T17:10:26.489Z,2.87
2019-02-23T17:12:54.726Z,2.82
2019-02-23T17:15:22.991Z,2.76
2019-02-23T17:17:51.328Z,2.74
2019-02-23T17:20:19.780Z,2.69
2019-02-23T17:22:48.319Z,2.65
2019-02-23T17:25:16.565Z,2.60
2019-02-23T17:27:45.225Z,2.55
2019-02-23T17:30:13.526Z,2.49
2019-02-23T17:32:43.477Z,2.42
2019-02-23T17:35:11.893Z,2.33
2019-02-23T17:37:40.239Z,2.29
2019-02-23T17:40:08.564Z,2.24
2019-02-23T17:42:36.797Z,2.21
2019-02-23T17:45:08.077Z,2.14
2019-02-23T17:47:36.510Z,2.08
2019-02-23T17:50:06.768Z,2.01
2019-02-23T17:52:36.717Z,1.96
2019-02-23T17:55:07.396Z,1.93
2019-02-23T17:57:35.664Z,1.88
2019-02-23T18:00:04.454Z,1.82
2019-02-23T18:02:32.712Z,1.78
2019-02-23T18:05:00.952Z,1.74
2019-02-23T18:07:29.207Z,1.68
2019-02-23T18:09:57.470Z,1.61
2019-02-23T18:12:25.713Z,1.55
2019-02-23T18:14:53.965Z,1.55
2019-02-23T18:17:22.277Z,1.61
2019-02-23T18:19:50.611Z,1.63
2019-02-23T18:22:18.863Z,1.63
2019-02-23T18:24:47.105Z,1.61
2019-02-23T18:27:15.358Z,0.95
2019-02-23T18:29:43.602Z,1.65
2019-02-23T18:32:11.847Z,1.69
2019-02-23T18:34:40.102Z,1.71
2019-02-23T18:37:08.351Z,1.72
2019-02-23T18:39:36.609Z,1.70
2019-02-23T18:42:04.898Z,1.65
2019-02-23T18:44:33.139Z,1.59
2019-02-23T18:47:01.419Z,1.55
2019-02-23T18:49:29.730Z,1.48
2019-02-23T18:51:58.079Z,1.39
2019-02-23T18:54:26.331Z,1.41
2019-02-23T18:56:54.638Z,1.37
2019-02-23T18:59:22.921Z,1.37
2019-02-23T19:01:51.169Z,1.39
2019-02-23T19:04:19.414Z,1.42
2019-02-23T19:06:47.667Z,1.44
2019-02-23T19:09:15.905Z,1.40
2019-02-23T19:11:44.146Z,1.37
2019-02-23T19:14:12.408Z,1.32
2019-02-23T19:16:40.718Z,1.32
2019-02-23T19:19:08.981Z,1.30
2019-02-23T19:21:37.231Z,1.25
2019-02-23T19:24:05.467Z,1.19
2019-02-23T19:26:38.267Z,1.08
2019-02-23T19:29:03.695Z,0.98
2019-02-23T19:31:31.930Z,0.90
2019-02-23T19:34:00.182Z,0.86
2019-02-23T19:36:28.454Z,0.88
2019-02-23T19:38:56.701Z,0.88
2019-02-23T19:41:24.946Z,0.88
2019-02-23T19:43:53.237Z,0.90
2019-02-23T19:46:21.659Z,0.88
2019-02-23T19:48:49.910Z,0.87
2019-02-23T19:51:18.244Z,0.86
2019-02-23T19:53:46.688Z,0.80
2019-02-23T19:56:14.948Z,0.73
2019-02-23T19:58:43.297Z,0.68
2019-02-23T20:01:11.566Z,0.62
2019-02-23T20:03:39.819Z,0.61
2019-02-23T20:06:08.090Z,0.61
2019-02-23T20:08:36.409Z,0.60
2019-02-23T20:11:04.799Z,0.55
2019-02-23T20:13:33.190Z,0.53
2019-02-23T20:16:01.565Z,0.48
2019-02-23T20:18:30.103Z,0.48
2019-02-23T20:20:58.612Z,0.45
2019-02-23T20:23:27.037Z,0.42
2019-02-23T20:25:56.126Z,0.35
2019-02-23T20:28:24.549Z,0.28
2019-02-23T20:30:53.024Z,0.25
2019-02-23T20:33:21.447Z,0.19
2019-02-23T20:35:49.804Z,0.17
2019-02-23T20:38:18.201Z,0.18
2019-02-23T20:40:46.709Z,0.20
2019-02-23T20:43:15.299Z,0.20
2019-02-23T20:45:44.022Z,0.18
2019-02-23T20:48:12.495Z,0.14
2019-02-23T20:50:40.763Z,0.11
2019-02-23T20:53:09.118Z,0.07
2019-02-23T20:55:38.297Z,0.05
2019-02-23T20:58:06.565Z,-0.07
2019-02-23T21:00:34.923Z,-0.15
2019-02-23T21:03:03.178Z,-0.15
2019-02-23T21:05:31.491Z,-0.13
2019-02-23T21:07:59.890Z,-0.13
2019-02-23T21:10:28.194Z,-0.09
2019-02-23T21:12:56.470Z,-0.09
2019-02-23T21:15:24.871Z,-0.08
2019-02-23T21:17:53.205Z,-0.11
2019-02-23T21:20:21.541Z,-0.12
2019-02-23T21:22:49.825Z,-0.13
2019-02-23T21:25:18.155Z,-0.15
2019-02-23T21:27:46.478Z,-0.15
2019-02-23T21:30:14.732Z,-0.21
2019-02-23T21:32:43.018Z,-0.29
2019-02-23T21:35:11.359Z,-0.32
2019-02-23T21:37:39.621Z,-0.32
2019-02-23T21:40:09.920Z,-0.33
2019-02-23T21:42:38.187Z,-0.32
2019-02-23T21:45:08.490Z,-0.35
2019-02-23T21:47:36.701Z,-0.37
2019-02-23T21:50:07.234Z,-0.40
2019-02-23T21:52:35.495Z,-0.42
2019-02-23T21:55:03.858Z,-0.43
2019-02-23T21:57:32.270Z,-0.45
2019-02-23T22:00:00.677Z,-0.48
2019-02-23T22:02:28.920Z,-0.55
2019-02-23T22:04:57.181Z,-0.62
2019-02-23T22:07:25.486Z,-0.72
2019-02-23T22:09:53.724Z,-0.76
2019-02-23T22:12:22.079Z,-0.78
2019-02-23T22:14:50.345Z,-0.79
2019-02-23T22:17:18.643Z,-0.75
2019-02-23T22:19:46.896Z,-0.73
2019-02-23T22:22:15.238Z,-0.70
2019-02-23T22:24:43.560Z,-0.69
2019-02-23T22:27:11.822Z,-0.70
2019-02-23T22:29:40.088Z,-0.70
2019-02-23T22:32:08.350Z,-0.68
2019-02-23T22:34:36.630Z,-0.68
2019-02-23T22:37:04.941Z,-0.72
2019-02-23T22:39:33.237Z,-0.75
2019-02-23T22:42:01.513Z,-0.75
2019-02-23T22:44:29.819Z,-0.75
2019-02-23T22:46:58.117Z,-0.75
2019-02-23T22:49:26.377Z,-0.72
2019-02-23T22:51:54.669Z,-0.72
2019-02-23T22:54:22.956Z,-0.71
2019-02-23T22:56:51.309Z,-0.70
2019-02-23T22:59:19.604Z,-0.69
2019-02-23T23:01:47.906Z,-0.67
2019-02-23T23:04:16.273Z,-0.63
2019-02-23T23:06:44.545Z,-0.66
2019-02-23T23:09:14.452Z,-0.64
2019-02-23T23:11:42.713Z,-0.66
2019-02-23T23:14:10.969Z,-0.69
2019-02-23T23:16:39.261Z,-0.69
2019-02-23T23:19:07.535Z,-0.72
2019-02-23T23:21:35.790Z,-0.67
2019-02-23T23:24:04.047Z,-0.67
2019-02-23T23:26:32.364Z,-0.69
2019-02-23T23:29:00.656Z,-0.67
2019-02-23T23:31:28.936Z,-0.65
2019-02-23T23:33:57.214Z,-0.61
2019-02-23T23:36:25.477Z,-0.58
2019-02-23T23:38:53.727Z,-0.57
2019-02-23T23:41:22.012Z,-0.56
2019-02-23T23:43:50.255Z,-0.56
2019-02-23T23:46:18.528Z,-0.55
2019-02-23T23:48:46.812Z,-0.57
2019-02-23T23:51:15.072Z,-0.56
2019-02-23T23:53:43.355Z,-0.57
2019-02-23T23:56:11.606Z,-0.58
2019-02-23T23:58:39.882Z,-0.59
